Detall de PIREP

Printer-friendly versionPDF version

[2014/02/13 15:11:00]
Flight IATA:CT3402
Pilot Number:042
Company ICAO:CAT
Aircraft Type:B763/F
PAX:200
Departing Airport: LEBL
Destination Airport: ENGM
Alternate Airport:ESSA
Online: VATSIM
Route:LEBL OKABI UN861 FISTO UY156 ADABI UN858 VANAD UN874 VEKIN UN873 SPY/N0450F350 UZ704 AMADA Z704 PIPEX M609 RIPAM ENGM
Flight Level:F360
No Slew and time accel
No pause
Crash detect
Detect pilot in Cockpit between each 30 and 45 minutes
15:11 Zero fuel Weight: 408051 Lbs, Fuel Weight: 320384 Lbs
15:11 VATSIM:LEBL 131500Z 24016KT 220V290 9999 FEW030 18/08 Q1011 NOSIG
15:11 VATSIM:ENGM 131450Z 16006KT 140V200 8000 -RASN SCT002 BKN004 00/00 Q0984 TEMPO 3000 -RASN
15:12 VOICE CATALONIAN
15:24 Parking Brakes off
15:35 Take-off
15:35 Take off Weight: 725345 Lbs
15:35 Wind: 241º @ 016 Knots Heading: 246º
15:35 POS N41º 16´ 58´´ E002º 04´ 35´´
15:35 Gear Up: 209 Knots
15:35 Flaps:2 at 209 Knots
15:36 Flaps:1 at 192 Knots
15:37 Flaps:0 at 248 Knots
15:50 Wind:276º@012 Knots Heading: 351º Ground Speed: 479 Knots Altitude 22536 ft
16:05 Wind:272º@013 Knots Heading: 354º Ground Speed: 501 Knots Altitude 32152 ft
16:20 Wind:264º@011 Knots Heading: 001º Ground Speed: 484 Knots Altitude 34993 ft
16:27 TOC
16:27 Fuel Weight: 295939 Lb
16:28 TOD
16:28 Fuel Weight: 295690 Lb
16:35 Wind:276º@014 Knots Heading: 017º Ground Speed: 479 Knots Altitude 34373 ft
16:50 Wind:278º@015 Knots Heading: 030º Ground Speed: 539 Knots Altitude 33517 ft
17:05 Wind:220º@010 Knots Heading: 024º Ground Speed: 543 Knots Altitude 33366 ft
17:20 Wind:207º@007 Knots Heading: 019º Ground Speed: 539 Knots Altitude 33346 ft
17:35 Wind:199º@012 Knots Heading: 022º Ground Speed: 510 Knots Altitude 33284 ft
17:50 Wind:178º@006 Knots Heading: 018º Ground Speed: 537 Knots Altitude 33133 ft
18:05 Wind:152º@025 Knots Heading: 019º Ground Speed: 328 Knots Altitude 11991 ft
18:05 Flaps:1 at 253 Knots
18:07 Flaps:2 at 253 Knots
18:14 Gear Down: 220 Knots
18:14 Flaps:3 at 220 Knots
18:14 Gear Up: 219 Knots
18:20 Wind:157º@011 Knots Heading: 154º Ground Speed: 236 Knots Altitude 6181 ft
18:24 Gear Down: 192 Knots
18:24 Flaps:4 at 192 Knots
18:26 Flaps:5 at 168 Knots
18:27 TouchDown:Rate -531 ft/min Speed: 163 Knots
18:27 VATSIM:ENGM 131750Z 16009KT 9999 -RASN FEW005 BKN008 01/00 Q0986 TEMPO BKN012
18:27 Land
18:27 Wind:158º@009 Knots
18:27 Heading: 195º
18:27 Flight Duration: 02:52
18:27 Landing Weight: 671219 Lbs
18:27 POS N60º 11´ 11´´ E011º 06´ 50´´
18:40 Parking brakes on
18:40 Block to Block Duration: 03:16
18:40 Final Fuel: 260886 Lbls
18:40 Spent Fuel: 59497 Lbls
18:40 Flight Length: 1326 NM
18:40 TOD Land Length: 922 NM

Exportar CSV

Powered by Drupal - Modified by Danger4k